Skiros, Greece
Current Conditions -  °F | °C
As of 5:50 AM on Sunday 25 Jan 2015 (Local Time) from LGSY Reporting Station
Scattered Clouds Scattered Clouds  
Wind Chill: 13°   Ceiling: Unl
Heat Index: 13°   Visibility: 6mi
Dew Point:   Wind: 15mph
Humidity: 72%   Direction: 180°S
Pressure: 29.65"   Gusts: NA
Location:  38.9°N, 24.56°E
Report Text: LGSY 250250Z 18013KT 9999 FEW020 SCT080 13/08 Q1004 BLU
Loading
Personal Weather Stations






























Interactive Weather Map New forecast layout! Learn more

10-Day Weather Forecast

Advertisements
Track Severe Weather on mobile